createdAt,value
2018-05-09T00:02:22.373Z,43.47
2018-05-09T00:04:50.459Z,44.02
2018-05-09T00:07:19.244Z,44.11
2018-05-09T00:09:47.322Z,44.30
2018-05-09T00:12:15.419Z,44.09
2018-05-09T00:14:43.555Z,44.00
2018-05-09T00:17:11.647Z,44.19
2018-05-09T00:19:39.715Z,44.61
2018-05-09T00:22:07.835Z,45.25
2018-05-09T00:24:35.941Z,44.80
2018-05-09T00:27:04.025Z,44.75
2018-05-09T00:29:32.155Z,44.70
2018-05-09T00:32:00.236Z,44.52
2018-05-09T00:34:28.326Z,44.88
2018-05-09T00:36:56.433Z,44.80
2018-05-09T00:39:24.531Z,44.23
2018-05-09T00:41:53.300Z,44.44
2018-05-09T00:44:21.399Z,44.48
2018-05-09T00:46:55.151Z,45.12
2018-05-09T00:49:28.720Z,45.50
2018-05-09T00:51:56.823Z,46.17
2018-05-09T00:54:32.576Z,46.99
2018-05-09T00:57:01.542Z,47.25
2018-05-09T00:59:29.647Z,48.18
2018-05-09T01:01:57.754Z,50.03
2018-05-09T01:04:25.840Z,49.93
2018-05-09T01:06:53.981Z,49.15
2018-05-09T01:09:22.073Z,49.33
2018-05-09T01:11:50.242Z,49.18
2018-05-09T01:14:18.330Z,49.77
2018-05-09T01:16:46.418Z,49.51
2018-05-09T01:19:14.522Z,49.02
2018-05-09T01:21:42.652Z,49.04
2018-05-09T01:24:10.758Z,49.38
2018-05-09T01:26:38.876Z,49.60
2018-05-09T01:29:07.028Z,49.20
2018-05-09T01:31:35.140Z,48.97
2018-05-09T01:34:03.255Z,48.88
2018-05-09T01:36:31.335Z,48.86
2018-05-09T01:38:59.454Z,48.85
2018-05-09T01:41:28.311Z,49.19
2018-05-09T01:43:56.423Z,48.67
2018-05-09T01:46:24.548Z,48.26
2018-05-09T01:48:52.664Z,48.13
2018-05-09T01:51:20.754Z,48.31
2018-05-09T01:53:49.303Z,47.60
2018-05-09T01:56:17.406Z,47.64
2018-05-09T01:58:45.576Z,47.36
2018-05-09T02:01:13.670Z,46.88
2018-05-09T02:03:41.765Z,46.67
2018-05-09T02:06:10.363Z,47.60
2018-05-09T02:08:38.453Z,48.08
2018-05-09T02:11:06.544Z,47.73
2018-05-09T02:13:34.661Z,47.81
2018-05-09T02:16:02.764Z,48.06
2018-05-09T02:18:30.910Z,48.97
2018-05-09T02:20:59.058Z,49.50
2018-05-09T02:23:27.155Z,49.22
2018-05-09T02:25:55.264Z,50.18
2018-05-09T02:28:23.368Z,50.50
2018-05-09T02:30:52.351Z,50.33
2018-05-09T02:33:20.470Z,51.12
2018-05-09T02:35:48.547Z,50.42
2018-05-09T02:38:16.657Z,50.34
2018-05-09T02:53:44.769Z,50.83
2018-05-09T02:56:12.860Z,51.62
2018-05-09T02:58:41.004Z,51.64
2018-05-09T03:01:09.112Z,51.38
2018-05-09T03:03:42.704Z,51.28
2018-05-09T03:06:10.822Z,51.69
2018-05-09T03:08:39.247Z,51.78
2018-05-09T03:11:07.399Z,51.84
2018-05-09T03:13:35.487Z,51.98
2018-05-09T03:16:03.634Z,51.64
2018-05-09T03:18:31.730Z,52.68
2018-05-09T03:20:59.860Z,52.85
2018-05-09T03:23:27.996Z,52.58
2018-05-09T03:25:56.154Z,52.25
2018-05-09T03:28:24.245Z,51.70
2018-05-09T03:30:52.386Z,51.64
2018-05-09T03:33:21.298Z,51.44
2018-05-09T03:35:49.393Z,51.02
2018-05-09T03:38:18.518Z,51.08
2018-05-09T03:40:46.630Z,51.85
2018-05-09T03:43:14.718Z,52.01
2018-05-09T03:45:42.836Z,52.26
2018-05-09T03:48:11.644Z,52.21
2018-05-09T03:50:39.790Z,52.94
2018-05-09T03:53:07.931Z,52.97
2018-05-09T03:55:41.661Z,52.19
2018-05-09T03:58:09.789Z,51.89
2018-05-09T04:00:38.286Z,51.75
2018-05-09T04:03:18.100Z,52.05
2018-05-09T04:05:59.215Z,51.89
2018-05-09T04:08:39.119Z,51.77
2018-05-09T04:11:07.207Z,52.14
2018-05-09T04:13:35.291Z,52.14
2018-05-09T04:16:03.387Z,51.82
2018-05-09T04:18:32.243Z,52.05
2018-05-09T04:21:01.193Z,52.04
2018-05-09T04:23:29.235Z,51.60
2018-05-09T04:25:59.055Z,51.41
2018-05-09T04:28:27.150Z,51.48
2018-05-09T04:30:56.066Z,51.13
2018-05-09T04:33:24.157Z,51.09
2018-05-09T04:35:52.249Z,50.82
2018-05-09T04:38:20.357Z,50.96
2018-05-09T04:40:48.448Z,50.87
2018-05-09T04:43:16.536Z,50.93
2018-05-09T04:45:45.219Z,50.74
2018-05-09T04:48:13.354Z,50.97
2018-05-09T04:50:41.442Z,50.67
2018-05-09T04:53:09.543Z,50.68
2018-05-09T04:55:37.745Z,50.42
2018-05-09T04:58:05.772Z,50.17
2018-05-09T05:00:33.903Z,50.11
2018-05-09T05:03:02.609Z,50.71
2018-05-09T05:05:30.706Z,49.11
2018-05-09T05:07:59.508Z,50.76
2018-05-09T05:10:27.601Z,49.73
2018-05-09T05:12:55.695Z,50.29
2018-05-09T05:15:23.795Z,50.59
2018-05-09T05:17:51.916Z,50.47
2018-05-09T05:20:20.750Z,49.29
2018-05-09T05:22:50.161Z,48.36
2018-05-09T05:25:18.275Z,47.90
2018-05-09T05:27:46.378Z,48.17
2018-05-09T05:30:14.473Z,48.29
2018-05-09T05:32:42.601Z,48.11
2018-05-09T05:35:10.715Z,47.79
2018-05-09T05:37:38.864Z,48.40
2018-05-09T05:40:07.160Z,46.37
2018-05-09T05:42:35.267Z,46.15
2018-05-09T05:45:03.401Z,45.38
2018-05-09T05:47:31.736Z,46.71
2018-05-09T05:49:59.831Z,47.40
2018-05-09T05:52:28.343Z,46.66
2018-05-09T05:54:56.439Z,46.24
2018-05-09T05:57:24.534Z,46.33
2018-05-09T05:59:54.163Z,43.58
2018-05-09T06:02:23.815Z,43.48
2018-05-09T06:04:51.907Z,43.24
2018-05-09T06:07:20.795Z,43.59
2018-05-09T06:09:48.899Z,44.92
2018-05-09T06:12:17.496Z,45.27
2018-05-09T06:14:45.591Z,47.56
2018-05-09T06:17:19.158Z,47.71
2018-05-09T06:19:47.251Z,48.51
2018-05-09T06:22:15.341Z,49.25
2018-05-09T06:24:43.541Z,49.11
2018-05-09T06:27:12.578Z,49.53
2018-05-09T06:29:40.675Z,48.61
2018-05-09T06:32:08.775Z,48.95
2018-05-09T06:34:36.867Z,50.27
2018-05-09T06:37:04.971Z,50.33
2018-05-09T06:39:33.083Z,50.60
2018-05-09T06:42:01.212Z,51.49
2018-05-09T06:44:29.318Z,52.21
2018-05-09T06:46:57.419Z,52.58
2018-05-09T06:49:25.523Z,54.48
2018-05-09T06:51:53.623Z,54.28
2018-05-09T06:54:21.757Z,53.31
2018-05-09T06:56:49.845Z,52.31
2018-05-09T06:59:17.935Z,51.66
2018-05-09T07:01:46.039Z,51.48
2018-05-09T07:04:14.198Z,50.26
2018-05-09T07:06:42.615Z,49.81
2018-05-09T07:09:10.471Z,48.57
2018-05-09T07:11:38.702Z,47.53
2018-05-09T07:14:06.789Z,46.25
2018-05-09T07:16:34.891Z,45.64
2018-05-09T07:19:03.032Z,44.42
2018-05-09T07:21:31.163Z,45.54
2018-05-09T07:23:59.264Z,43.98
2018-05-09T07:26:27.370Z,43.68
2018-05-09T07:28:55.494Z,44.25
2018-05-09T07:31:23.602Z,44.70
2018-05-09T07:33:51.687Z,43.05
2018-05-09T07:36:19.811Z,44.25
2018-05-09T07:38:47.923Z,47.10
2018-05-09T07:41:16.017Z,46.76
2018-05-09T07:43:44.123Z,46.50
2018-05-09T07:46:17.892Z,46.11
2018-05-09T07:48:46.001Z,46.13
2018-05-09T07:51:14.141Z,46.20
2018-05-09T07:53:42.247Z,46.78
2018-05-09T07:56:10.370Z,46.36
2018-05-09T07:58:38.465Z,45.70
2018-05-09T08:01:06.591Z,45.14
2018-05-09T08:03:35.261Z,44.81
2018-05-09T08:06:03.386Z,44.69
2018-05-09T08:08:31.447Z,44.57
2018-05-09T08:10:59.562Z,44.10
2018-05-09T08:26:27.690Z,44.76
2018-05-09T08:28:55.808Z,44.62
2018-05-09T08:31:23.920Z,45.08
2018-05-09T08:33:52.018Z,44.99
2018-05-09T08:36:20.962Z,44.51
2018-05-09T08:38:55.100Z,42.87
2018-05-09T08:41:23.216Z,43.04
2018-05-09T08:43:51.479Z,43.11
2018-05-09T08:46:19.472Z,42.73
2018-05-09T08:48:47.578Z,42.19
2018-05-09T08:51:15.692Z,43.75
2018-05-09T08:53:44.050Z,44.57
2018-05-09T08:56:12.180Z,44.16
2018-05-09T08:58:40.276Z,43.68
2018-05-09T09:01:08.364Z,42.79
2018-05-09T09:03:36.564Z,42.94
2018-05-09T09:06:04.632Z,42.96
2018-05-09T09:08:32.741Z,43.48
2018-05-09T09:11:06.518Z,43.93
2018-05-09T09:13:34.616Z,43.66
2018-05-09T09:16:02.737Z,43.51
2018-05-09T09:18:30.876Z,43.30
2018-05-09T09:20:58.918Z,43.45
2018-05-09T09:23:27.037Z,43.66
2018-05-09T09:25:55.138Z,43.11
2018-05-09T09:28:23.233Z,43.85
2018-05-09T09:30:51.354Z,43.77
2018-05-09T09:33:19.441Z,41.78
2018-05-09T09:35:47.543Z,41.40
2018-05-09T09:38:21.084Z,41.37
2018-05-09T09:40:49.246Z,41.27
2018-05-09T09:43:17.674Z,43.13
2018-05-09T09:45:45.751Z,45.75
2018-05-09T09:48:19.376Z,47.15
2018-05-09T09:50:48.134Z,47.44
2018-05-09T09:53:16.246Z,47.99
2018-05-09T09:55:44.330Z,48.12
2018-05-09T09:58:13.276Z,47.63
2018-05-09T10:00:41.377Z,47.21
2018-05-09T10:03:09.480Z,47.24
2018-05-09T10:05:37.596Z,47.20
2018-05-09T10:08:05.780Z,46.54
2018-05-09T10:10:34.418Z,46.48
2018-05-09T10:13:02.536Z,46.47
2018-05-09T10:15:30.671Z,47.15
2018-05-09T10:17:58.808Z,46.39
2018-05-09T10:20:27.198Z,46.33
2018-05-09T10:22:55.295Z,47.78
2018-05-09T10:25:24.438Z,49.16
2018-05-09T10:27:52.554Z,48.91
2018-05-09T10:30:20.807Z,48.62
2018-05-09T10:32:50.512Z,49.41
2018-05-09T10:35:18.632Z,47.87
2018-05-09T10:37:47.526Z,48.38
2018-05-09T10:40:15.636Z,48.87
2018-05-09T10:42:43.962Z,48.93
2018-05-09T10:45:12.068Z,48.36
2018-05-09T10:47:45.654Z,48.69
2018-05-09T10:50:13.768Z,49.00
2018-05-09T10:52:42.462Z,48.78
2018-05-09T10:55:10.595Z,48.36
2018-05-09T10:57:38.740Z,48.55
2018-05-09T11:00:06.847Z,49.26
2018-05-09T11:02:35.208Z,49.63
2018-05-09T11:05:03.305Z,49.19
2018-05-09T11:07:31.365Z,48.85
2018-05-09T11:09:59.478Z,48.08
2018-05-09T11:12:27.605Z,47.41
2018-05-09T11:14:55.662Z,47.21
2018-05-09T11:17:23.765Z,47.48
2018-05-09T11:19:52.551Z,47.70
2018-05-09T11:22:20.656Z,47.48
2018-05-09T11:24:48.744Z,47.72
2018-05-09T11:27:17.977Z,47.81
2018-05-09T11:29:46.076Z,48.47
2018-05-09T11:32:14.192Z,48.29
2018-05-09T11:34:43.193Z,47.94
2018-05-09T11:37:17.018Z,48.18
2018-05-09T11:39:45.080Z,48.36
2018-05-09T11:42:13.193Z,48.33
2018-05-09T11:44:41.499Z,48.33
2018-05-09T11:47:09.579Z,48.21
2018-05-09T11:49:37.694Z,48.35
2018-05-09T11:52:05.820Z,48.62
2018-05-09T11:54:33.918Z,48.48
2018-05-09T11:57:02.077Z,48.66
2018-05-09T11:59:35.562Z,49.36
2018-05-09T12:02:03.712Z,49.30
2018-05-09T12:04:31.817Z,49.44
2018-05-09T12:06:59.910Z,49.25
2018-05-09T12:09:28.025Z,48.79
2018-05-09T12:11:56.123Z,49.29
2018-05-09T12:14:24.234Z,48.81
2018-05-09T12:16:52.322Z,48.88
2018-05-09T12:19:26.059Z,49.28
2018-05-09T12:21:54.169Z,49.17
2018-05-09T12:24:22.272Z,49.54
2018-05-09T12:26:50.399Z,48.90
2018-05-09T12:29:18.798Z,48.73
2018-05-09T12:31:47.811Z,48.46
2018-05-09T12:34:15.930Z,48.74
2018-05-09T12:36:44.047Z,48.45
2018-05-09T12:39:12.421Z,48.99
2018-05-09T12:41:40.511Z,48.97
2018-05-09T12:44:08.608Z,48.76
2018-05-09T12:46:36.741Z,49.19
2018-05-09T12:49:04.940Z,49.54
2018-05-09T12:51:33.084Z,49.64
2018-05-09T12:54:01.183Z,49.61
2018-05-09T12:56:29.298Z,49.62
2018-05-09T12:58:57.401Z,50.20
2018-05-09T13:01:26.083Z,49.85
2018-05-09T13:03:55.109Z,49.45
2018-05-09T13:06:23.216Z,48.95
2018-05-09T13:08:51.336Z,49.18
2018-05-09T13:11:19.436Z,49.37
2018-05-09T13:13:47.548Z,48.67
2018-05-09T13:16:15.684Z,48.60
2018-05-09T13:18:43.792Z,48.90
2018-05-09T13:21:11.898Z,48.69
2018-05-09T13:23:40.044Z,48.14
2018-05-09T13:26:08.204Z,48.01
2018-05-09T13:28:36.325Z,48.28
2018-05-09T13:31:04.466Z,47.96
2018-05-09T13:33:32.584Z,47.34
2018-05-09T13:36:00.868Z,48.00
2018-05-09T13:38:29.736Z,47.95
2018-05-09T13:40:57.880Z,47.97
2018-05-09T13:43:31.414Z,46.48
2018-05-09T13:45:59.868Z,46.78
2018-05-09T13:48:27.968Z,46.82
2018-05-09T13:50:56.063Z,45.81
2018-05-09T13:53:25.094Z,46.08
2018-05-09T13:55:53.198Z,45.60
2018-05-09T13:58:22.201Z,45.63
2018-05-09T14:00:50.342Z,44.57
2018-05-09T14:03:18.413Z,45.65
2018-05-09T14:05:46.577Z,46.08
2018-05-09T14:08:15.363Z,46.10
2018-05-09T14:10:44.484Z,45.25
2018-05-09T14:13:12.583Z,45.54
2018-05-09T14:15:40.680Z,45.56
2018-05-09T14:18:08.771Z,45.79
2018-05-09T14:20:36.886Z,46.02
2018-05-09T14:23:04.999Z,45.89
2018-05-09T14:25:33.112Z,46.54
2018-05-09T14:28:01.222Z,46.41
2018-05-09T14:30:29.313Z,46.01
2018-05-09T14:32:57.404Z,46.21
2018-05-09T14:35:25.512Z,46.20
2018-05-09T14:37:54.240Z,46.06
2018-05-09T14:40:22.346Z,46.43
2018-05-09T14:43:00.027Z,46.68
2018-05-09T14:45:28.118Z,47.42
2018-05-09T14:47:56.435Z,47.12
2018-05-09T14:50:25.052Z,46.14
2018-05-09T14:52:53.654Z,46.82
2018-05-09T14:55:22.379Z,47.88
2018-05-09T14:57:50.486Z,48.97
2018-05-09T15:00:18.656Z,48.98
2018-05-09T15:02:46.695Z,47.97
2018-05-09T15:05:14.791Z,48.18
2018-05-09T15:07:43.842Z,48.37
2018-05-09T15:10:14.527Z,47.87
2018-05-09T15:12:44.091Z,47.60
2018-05-09T15:15:12.280Z,47.11
2018-05-09T15:17:40.759Z,47.04
2018-05-09T15:20:08.863Z,46.96
2018-05-09T15:22:36.967Z,48.34
2018-05-09T15:25:05.110Z,48.96
2018-05-09T15:27:33.230Z,48.57
2018-05-09T15:30:01.344Z,48.33
2018-05-09T15:32:29.431Z,48.51
2018-05-09T15:34:57.535Z,49.00
2018-05-09T15:37:26.630Z,48.37
2018-05-09T15:39:54.743Z,48.51
2018-05-09T15:42:22.852Z,48.52
2018-05-09T15:44:51.087Z,48.59
2018-05-09T15:47:20.283Z,48.64
2018-05-09T15:49:48.387Z,48.96
2018-05-09T15:52:16.483Z,48.94
2018-05-09T15:54:45.110Z,48.96
2018-05-09T15:57:13.208Z,49.06
2018-05-09T15:59:41.330Z,48.96
2018-05-09T16:02:09.928Z,48.49
2018-05-09T16:04:38.018Z,48.92
2018-05-09T16:07:06.119Z,49.53
2018-05-09T16:09:39.662Z,49.03
2018-05-09T16:12:07.758Z,48.36
2018-05-09T16:14:35.854Z,48.37
2018-05-09T16:17:03.981Z,48.28
2018-05-09T16:19:32.161Z,48.20
2018-05-09T16:22:00.201Z,48.01
2018-05-09T16:24:28.304Z,48.75
2018-05-09T16:26:56.406Z,48.73
2018-05-09T16:29:24.527Z,48.71
2018-05-09T16:31:52.620Z,48.90
2018-05-09T16:34:20.992Z,49.32
2018-05-09T16:36:50.095Z,49.90
2018-05-09T16:39:18.185Z,49.96
2018-05-09T16:41:46.306Z,50.18
2018-05-09T16:44:14.420Z,49.61
2018-05-09T16:46:42.530Z,49.89
2018-05-09T16:49:10.644Z,49.98
2018-05-09T16:51:38.769Z,50.16
2018-05-09T16:54:06.870Z,50.93
2018-05-09T16:56:35.076Z,51.08
2018-05-09T16:59:03.195Z,51.30
2018-05-09T17:01:31.395Z,51.23
2018-05-09T17:03:59.440Z,51.51
2018-05-09T17:06:33.050Z,51.21
2018-05-09T17:09:06.748Z,50.97
2018-05-09T17:11:35.170Z,51.24
2018-05-09T17:14:03.252Z,50.98
2018-05-09T17:16:31.375Z,51.44
2018-05-09T17:18:59.481Z,51.51
2018-05-09T17:21:39.412Z,51.09
2018-05-09T17:24:07.516Z,51.31
2018-05-09T17:26:35.671Z,51.44
2018-05-09T17:29:03.906Z,51.07
2018-05-09T17:31:31.996Z,51.14
2018-05-09T17:34:00.111Z,51.06
2018-05-09T17:36:28.272Z,51.98
2018-05-09T17:38:56.337Z,52.49
2018-05-09T17:41:24.689Z,51.99
2018-05-09T17:43:52.836Z,51.70
2018-05-09T17:46:20.924Z,51.02
2018-05-09T17:48:49.012Z,51.23
2018-05-09T17:51:17.169Z,50.99
2018-05-09T17:53:45.272Z,50.83
2018-05-09T17:56:13.851Z,50.57
2018-05-09T17:58:42.045Z,50.81
2018-05-09T18:01:10.113Z,51.07
2018-05-09T18:03:38.177Z,50.80
2018-05-09T18:06:06.287Z,50.81
2018-05-09T18:08:34.414Z,50.15
2018-05-09T18:11:02.487Z,51.18
2018-05-09T18:13:30.611Z,51.39
2018-05-09T18:15:58.712Z,52.32
2018-05-09T18:18:26.819Z,52.66
2018-05-09T18:20:55.264Z,52.94
2018-05-09T18:23:23.364Z,52.49
2018-05-09T18:25:51.466Z,52.11
2018-05-09T18:28:19.569Z,52.56
2018-05-09T18:30:47.675Z,52.72
2018-05-09T18:33:15.789Z,52.21
2018-05-09T18:35:43.895Z,52.50
2018-05-09T18:38:12.219Z,52.48
2018-05-09T18:40:40.312Z,52.04
2018-05-09T18:43:08.432Z,52.42
2018-05-09T18:45:36.640Z,52.90
2018-05-09T18:48:10.433Z,53.54
2018-05-09T18:50:38.522Z,53.55
2018-05-09T18:53:06.634Z,53.58
2018-05-09T18:55:34.790Z,53.76
2018-05-09T18:58:02.932Z,55.15
2018-05-09T19:00:31.092Z,54.76
2018-05-09T19:02:59.191Z,54.79
2018-05-09T19:05:27.320Z,55.44
2018-05-09T19:07:56.157Z,55.56
2018-05-09T19:10:24.261Z,55.24
2018-05-09T19:12:52.386Z,55.34
2018-05-09T19:15:20.502Z,54.94
2018-05-09T19:17:48.599Z,54.26
2018-05-09T19:20:17.083Z,54.53
2018-05-09T19:22:45.220Z,54.43
2018-05-09T19:25:13.306Z,54.47
2018-05-09T19:27:41.405Z,54.42
2018-05-09T19:30:09.506Z,54.60
2018-05-09T19:32:37.623Z,54.73
2018-05-09T19:35:05.730Z,54.90
2018-05-09T19:37:34.445Z,54.79
2018-05-09T19:40:02.539Z,54.37
2018-05-09T19:42:31.179Z,54.03
2018-05-09T19:44:59.580Z,53.87
2018-05-09T19:47:27.693Z,53.68
2018-05-09T19:49:56.354Z,53.20
2018-05-09T19:52:24.460Z,53.35
2018-05-09T19:54:52.606Z,53.76
2018-05-09T19:57:20.730Z,53.96
2018-05-09T19:59:49.120Z,55.18
2018-05-09T20:02:17.214Z,55.44
2018-05-09T20:04:45.372Z,55.20
2018-05-09T20:07:13.503Z,55.38
2018-05-09T20:09:47.077Z,54.90
2018-05-09T20:12:15.194Z,55.06
2018-05-09T20:14:43.439Z,55.10
2018-05-09T20:17:11.613Z,55.93
2018-05-09T20:19:39.757Z,55.48
2018-05-09T20:22:13.308Z,55.56
2018-05-09T20:24:47.157Z,56.27
2018-05-09T20:27:15.275Z,58.30
2018-05-09T20:29:44.681Z,58.29
2018-05-09T20:32:25.037Z,57.81
2018-05-09T20:34:53.151Z,58.29
2018-05-09T20:37:21.252Z,58.47
2018-05-09T20:39:49.395Z,59.14
2018-05-09T20:42:18.412Z,58.45
2018-05-09T20:44:46.514Z,58.72
2018-05-09T20:47:14.624Z,58.64
2018-05-09T20:49:42.997Z,58.34
2018-05-09T20:52:11.467Z,58.30
2018-05-09T20:54:39.569Z,58.85
2018-05-09T20:57:07.704Z,59.22
2018-05-09T20:59:35.805Z,59.71
2018-05-09T21:02:03.923Z,59.45
2018-05-09T21:04:32.333Z,59.40
2018-05-09T21:07:00.719Z,58.88
2018-05-09T21:09:28.907Z,58.50
2018-05-09T21:12:08.782Z,59.46
2018-05-09T21:14:36.978Z,59.64
2018-05-09T21:17:05.024Z,59.68
2018-05-09T21:19:33.140Z,59.34
2018-05-09T21:22:01.264Z,59.16
2018-05-09T21:24:29.413Z,59.35
2018-05-09T21:26:58.295Z,59.82
2018-05-09T21:29:26.435Z,60.00
2018-05-09T21:31:54.533Z,59.80
2018-05-09T21:34:22.717Z,59.84
2018-05-09T21:36:50.839Z,60.05
2018-05-09T21:39:19.272Z,59.72
2018-05-09T21:41:47.368Z,59.42
2018-05-09T21:44:15.486Z,59.68
2018-05-09T21:46:43.593Z,60.81
2018-05-09T21:49:11.684Z,60.63
2018-05-09T21:51:39.909Z,61.08
2018-05-09T21:54:07.996Z,60.63
2018-05-09T22:09:36.179Z,60.55
2018-05-09T22:12:05.320Z,61.49
2018-05-09T22:14:33.403Z,62.72
2018-05-09T22:17:01.523Z,62.02
2018-05-09T22:19:30.687Z,62.16
2018-05-09T22:21:58.788Z,63.01
2018-05-09T22:24:26.887Z,62.78
2018-05-09T22:26:55.010Z,63.74
2018-05-09T22:29:23.172Z,63.36
2018-05-09T22:31:51.315Z,63.56
2018-05-09T22:34:19.436Z,65.46
2018-05-09T22:36:47.523Z,65.62
2018-05-09T22:39:16.411Z,65.43
2018-05-09T22:41:44.507Z,64.65
2018-05-09T22:44:12.599Z,64.04
2018-05-09T22:46:40.751Z,64.43
2018-05-09T22:49:08.847Z,64.18
2018-05-09T22:51:36.963Z,64.19
2018-05-09T22:54:06.039Z,63.94
2018-05-09T22:56:34.133Z,64.61
2018-05-09T22:59:02.215Z,64.15
2018-05-09T23:01:30.363Z,63.68
2018-05-09T23:03:58.491Z,63.03
2018-05-09T23:06:26.587Z,63.27
2018-05-09T23:08:54.729Z,62.76
2018-05-09T23:11:22.842Z,62.66
2018-05-09T23:13:50.978Z,62.48
2018-05-09T23:16:19.082Z,62.13
2018-05-09T23:18:47.177Z,61.44
2018-05-09T23:21:15.267Z,60.85
2018-05-09T23:23:43.535Z,60.93
2018-05-09T23:26:11.631Z,60.33
2018-05-09T23:28:39.771Z,60.26
2018-05-09T23:31:07.886Z,60.36
2018-05-09T23:33:36.705Z,59.81
2018-05-09T23:36:04.824Z,60.08
2018-05-09T23:38:32.932Z,60.26
2018-05-09T23:41:01.025Z,59.88
2018-05-09T23:43:29.133Z,60.48
2018-05-09T23:45:57.223Z,60.60
2018-05-09T23:48:25.622Z,60.27
2018-05-09T23:50:53.699Z,61.11
2018-05-09T23:53:21.843Z,61.75
2018-05-09T23:55:50.033Z,61.00
2018-05-09T23:58:18.055Z,60.87
